TAF LEGE
LEGE 072300Z 0800/0824 VRB04KT 9999 SCT030 TX13/0812Z TN02/0806Z PROB30 TEMPO 0803/0806 4000 RA BR BECMG 0808/0811 28012KT PROB30 TEMPO 0808/0817 28015G25KT RA FEW030TCU=
METAR LEGE
LEGE 080300Z 03006KT 9999 BKN060 11/06 Q1004=
LEGE 080230Z 06004KT 010V100 9999 BKN060 11/07 Q1004=
LEGE 080200Z 03006KT 350V060 9999 BKN060 11/07 Q1004=
LEGE 080130Z 03006KT 9999 BKN060 11/07 Q1004=
LEGE 080100Z 05006KT 9999 BKN060 11/07 Q1004=
WC LEGE
WS LEGE
WV LEGE